Time;durP1;ratioP1;P1;durP2;ratioP2;P2;SDS_P1;SDS_P2;PMS_P1;PMS_P2;Temp;Humidity;BMP_temperature;BMP_pressure;BME280_temperature;BME280_humidity;BME280_pressure;Samples;Min_cycle;Max_cycle;Signal;HPM_P1;HPM_P2
2022/04/24 00:00:00;;;;;;;6.13;4.47;;;;;;;11.12;57.32;98342.78;5069499;28;20196;-57
2022/04/24 00:02:25;;;;;;;5.83;3.87;;;;;;;11.11;57.07;98336.00;5098366;28;20323;-56
2022/04/24 00:04:51;;;;;;;5.43;4.30;;;;;;;11.08;57.07;98331.13;5093479;28;20168;-56
2022/04/24 00:07:16;;;;;;;4.87;4.37;;;;;;;11.03;57.07;98330.72;5093411;28;20262;-56
2022/04/24 00:09:42;;;;;;;4.33;3.93;;;;;;;11.02;57.06;98332.47;5093245;28;20176;-57
2022/04/24 00:12:09;;;;;;;6.30;4.10;;;;;;;11.02;56.83;98326.50;5082145;28;20287;-59
2022/04/24 00:14:35;;;;;;;4.77;4.27;;;;;;;11.09;56.75;98323.28;5052285;28;20185;-58
2022/04/24 00:17:00;;;;;;;5.70;4.90;;;;;;;11.06;56.53;98327.88;5052921;28;20652;-57
2022/04/24 00:19:26;;;;;;;5.70;3.70;;;;;;;11.04;56.12;98328.00;5072334;28;20188;-57
2022/04/24 00:21:51;;;;;;;4.70;4.13;;;;;;;11.11;56.42;98328.28;5077124;28;20678;-57
2022/04/24 00:24:16;;;;;;;5.10;3.93;;;;;;;11.06;55.98;98320.16;5074168;28;20241;-57
2022/04/24 00:26:42;;;;;;;5.73;4.13;;;;;;;11.16;55.89;98325.34;5072680;28;20246;-57
2022/04/24 00:29:07;;;;;;;4.60;4.20;;;;;;;11.19;56.06;98323.31;5072555;28;20239;-56
2022/04/24 00:31:32;;;;;;;6.87;3.90;;;;;;;11.09;55.66;98323.28;5074439;28;20243;-58
2022/04/24 00:33:58;;;;;;;5.83;3.40;;;;;;;11.04;55.79;98311.75;5066703;28;20181;-57
2022/04/24 00:36:23;;;;;;;5.47;3.80;;;;;;;10.94;55.40;98317.69;5070023;28;20204;-58
2022/04/24 00:38:48;;;;;;;3.73;3.43;;;;;;;10.98;55.27;98313.09;5072755;28;20188;-57
2022/04/24 00:41:14;;;;;;;3.70;3.40;;;;;;;11.03;54.61;98310.94;5071341;28;20255;-58
2022/04/24 00:43:39;;;;;;;3.90;3.50;;;;;;;11.00;54.46;98307.81;5079234;28;20184;-57
2022/04/24 00:46:13;;;;;;;3.60;3.17;;;;;;;11.11;53.64;98310.28;5072546;28;20165;-57
2022/04/24 00:48:42;;;;;;;3.30;2.67;;;;;;;11.13;53.34;98310.97;5070932;28;20236;-57
2022/04/24 00:51:08;;;;;;;4.47;4.07;;;;;;;11.21;52.95;98315.47;5070016;28;20228;-59
2022/04/24 00:53:34;;;;;;;4.70;3.30;;;;;;;11.10;52.40;98313.78;5071194;28;20245;-57
2022/04/24 00:55:59;;;;;;;3.40;3.10;;;;;;;11.17;51.97;98312.31;5071084;28;20217;-56
2022/04/24 00:58:25;;;;;;;3.67;2.90;;;;;;;11.22;51.49;98307.59;5077478;28;20168;-58
2022/04/24 01:00:52;;;;;;;5.43;3.17;;;;;;;11.34;51.63;98310.06;5087940;28;20246;-57
2022/04/24 01:03:18;;;;;;;3.83;3.23;;;;;;;11.33;50.74;98306.69;5101412;28;20203;-58
2022/04/24 01:05:44;;;;;;;3.57;3.27;;;;;;;11.31;50.49;98303.41;5091301;28;20591;-57
2022/04/24 01:08:09;;;;;;;3.70;3.40;;;;;;;11.29;49.78;98297.59;5092646;28;20245;-57
2022/04/24 01:10:39;;;;;;;3.03;2.73;;;;;;;11.35;49.62;98298.81;5085897;28;20254;-57
2022/04/24 01:13:05;;;;;;;3.53;3.17;;;;;;;11.44;49.01;98308.34;5091068;28;20180;-56
2022/04/24 01:15:32;;;;;;;4.70;2.83;;;;;;;11.40;48.91;98310.34;5090838;28;20200;-56
2022/04/24 01:17:58;;;;;;;4.03;3.30;;;;;;;11.44;48.70;98309.13;5090710;28;20221;-57
2022/04/24 01:20:24;;;;;;;3.30;3.00;;;;;;;11.47;48.46;98308.06;5083200;28;20338;-58
2022/04/24 01:22:49;;;;;;;3.33;3.03;;;;;;;11.49;47.99;98307.94;5104720;28;20168;-57
2022/04/24 01:25:15;;;;;;;3.50;2.73;;;;;;;11.51;48.11;98309.44;5092320;28;20188;-58
2022/04/24 01:27:40;;;;;;;3.67;3.37;;;;;;;11.59;48.09;98301.03;5091917;28;20253;-58
2022/04/24 01:30:06;;;;;;;3.43;3.13;;;;;;;11.66;47.97;98296.97;5077306;28;20916;-58
2022/04/24 01:32:33;;;;;;;3.37;3.07;;;;;;;11.60;47.66;98300.09;5060257;28;20242;-57
2022/04/24 01:34:59;;;;;;;3.53;3.23;;;;;;;11.61;47.69;98296.56;5051814;28;20200;-58
2022/04/24 01:37:24;;;;;;;4.10;3.13;;;;;;;11.54;47.75;98293.69;5051883;28;20184;-57
2022/04/24 01:39:53;;;;;;;3.37;3.10;;;;;;;11.60;47.15;98288.00;5051234;28;20231;-56
2022/04/24 01:42:18;;;;;;;3.10;2.80;;;;;;;11.61;47.29;98288.84;5041160;28;20239;-58
2022/04/24 01:44:43;;;;;;;3.53;2.77;;;;;;;11.63;47.09;98290.34;5051465;28;20176;-57
2022/04/24 01:47:08;;;;;;;3.10;2.80;;;;;;;11.68;47.38;98292.47;5050287;28;20663;-57
2022/04/24 01:49:34;;;;;;;4.10;3.00;;;;;;;11.63;46.70;98290.34;5049990;28;20180;-57
2022/04/24 01:52:00;;;;;;;3.03;2.83;;;;;;;11.55;47.05;98286.81;5042923;28;20233;-57
2022/04/24 01:54:25;;;;;;;2.90;2.60;;;;;;;11.66;46.74;98286.66;5052030;28;20173;-57
2022/04/24 01:56:50;;;;;;;5.20;2.93;;;;;;;11.66;46.65;98291.00;5054629;28;20208;-57
2022/04/24 01:59:15;;;;;;;3.37;3.00;;;;;;;11.74;46.77;98291.13;5081663;28;20527;-57
2022/04/24 02:01:41;;;;;;;3.13;2.83;;;;;;;11.66;46.65;98289.25;5094170;28;20638;-57
2022/04/24 02:04:06;;;;;;;3.70;3.40;;;;;;;11.64;46.40;98288.56;5094466;28;20208;-56
2022/04/24 02:06:31;;;;;;;3.97;3.00;;;;;;;11.60;46.57;98289.78;5091639;28;20182;-58
2022/04/24 02:08:57;;;;;;;3.10;2.90;;;;;;;11.58;46.57;98276.22;5091383;28;20509;-58
2022/04/24 02:11:22;;;;;;;4.63;3.03;;;;;;;11.63;46.64;98279.19;5092023;28;20235;-57
2022/04/24 02:13:47;;;;;;;4.50;3.80;;;;;;;11.61;46.69;98284.50;5090241;28;20643;-56
2022/04/24 02:16:12;;;;;;;3.53;3.23;;;;;;;11.57;46.86;98280.56;5091556;28;20196;-58
2022/04/24 02:18:38;;;;;;;3.17;2.93;;;;;;;11.59;47.07;98276.06;5091186;28;20180;-58
2022/04/24 02:21:03;;;;;;;4.03;3.57;;;;;;;11.63;46.96;98274.88;5088660;28;20641;-58
2022/04/24 02:23:28;;;;;;;3.07;2.80;;;;;;;11.61;46.94;98273.41;5099400;28;20175;-56
2022/04/24 02:25:53;;;;;;;3.60;3.30;;;;;;;11.63;46.43;98276.63;5093003;28;20218;-57
2022/04/24 02:28:19;;;;;;;3.53;3.23;;;;;;;11.68;46.81;98268.50;5085508;28;20299;-58
2022/04/24 02:30:44;;;;;;;5.10;3.20;;;;;;;11.72;46.87;98264.69;5060825;28;20284;-57
2022/04/24 02:33:10;;;;;;;3.30;2.80;;;;;;;11.65;46.75;98266.19;5085133;28;20195;-56
2022/04/24 02:35:35;;;;;;;3.70;3.40;;;;;;;11.66;46.68;98268.66;5075249;28;20199;-57
2022/04/24 02:38:00;;;;;;;3.20;2.90;;;;;;;11.65;46.91;98254.13;5075100;28;20176;-57
2022/04/24 02:40:27;;;;;;;3.53;3.23;;;;;;;11.60;46.98;98256.31;5067482;28;20306;-57
2022/04/24 02:42:53;;;;;;;3.77;3.47;;;;;;;11.59;46.93;98265.78;5073701;28;20212;-57
2022/04/24 02:45:20;;;;;;;3.80;3.50;;;;;;;11.59;47.18;98262.41;5074906;28;20215;-57
2022/04/24 02:47:46;;;;;;;3.30;2.97;;;;;;;11.74;47.21;98267.97;5073376;28;20546;-57
2022/04/24 02:50:11;;;;;;;6.20;3.33;;;;;;;11.69;47.02;98262.41;5064005;28;20267;-56
2022/04/24 02:52:46;;;;;;;4.87;3.67;;;;;;;11.60;47.11;98270.00;5088861;28;20237;-57
2022/04/24 02:55:13;;;;;;;5.00;3.17;;;;;;;11.63;47.57;98267.16;5074596;28;20666;-57
2022/04/24 02:57:38;;;;;;;4.00;3.57;;;;;;;11.64;47.49;98267.97;5075076;28;20559;-57
2022/04/24 03:00:04;;;;;;;3.50;3.20;;;;;;;11.55;47.38;98268.78;5083303;28;20251;-58
2022/04/24 03:02:29;;;;;;;3.57;3.27;;;;;;;11.55;47.45;98267.00;5066212;28;20233;-58
2022/04/24 03:04:55;;;;;;;3.07;2.77;;;;;;;11.54;47.44;98269.72;5093641;28;20176;-58
2022/04/24 03:07:20;;;;;;;5.10;3.50;;;;;;;11.60;47.46;98266.59;5094765;28;20193;-57
2022/04/24 03:09:45;;;;;;;3.63;3.30;;;;;;;11.54;47.67;98267.16;5094371;28;20176;-57
2022/04/24 03:12:10;;;;;;;6.00;3.13;;;;;;;11.46;47.92;98268.63;5100183;28;20558;-56
2022/04/24 03:14:36;;;;;;;3.50;3.03;;;;;;;11.48;47.79;98265.13;5092760;28;20169;-57
2022/04/24 03:17:01;;;;;;;3.57;3.27;;;;;;;11.49;47.54;98277.84;5099947;28;20275;-56
2022/04/24 03:19:26;;;;;;;16.97;3.57;;;;;;;11.51;47.66;98275.13;5094176;28;20184;-56
2022/04/24 03:21:52;;;;;;;4.20;3.60;;;;;;;11.51;47.60;98278.53;5098555;28;20318;-56
2022/04/24 03:24:17;;;;;;;3.30;3.00;;;;;;;11.44;47.93;98273.09;5095799;28;20199;-57
2022/04/24 03:26:42;;;;;;;3.60;3.30;;;;;;;11.49;47.98;98272.69;5073551;28;20321;-58
2022/04/24 03:29:07;;;;;;;3.50;3.20;;;;;;;11.61;47.60;98263.88;5056091;28;20591;-58
2022/04/24 03:31:33;;;;;;;4.00;3.47;;;;;;;11.61;47.58;98263.88;5044734;28;20218;-56
2022/04/24 03:33:58;;;;;;;3.57;3.27;;;;;;;11.60;47.46;98259.69;5062581;28;20181;-57
2022/04/24 03:36:25;;;;;;;3.67;3.07;;;;;;;11.65;47.63;98261.88;5053774;28;20201;-57
2022/04/24 03:38:50;;;;;;;4.53;3.73;;;;;;;11.57;47.40;98259.13;5051562;28;20581;-58
2022/04/24 03:41:15;;;;;;;3.47;3.17;;;;;;;11.55;47.40;98261.84;5052856;28;20248;-56
2022/04/24 03:43:40;;;;;;;3.33;3.00;;;;;;;11.57;47.47;98264.28;5059799;28;20178;-56
2022/04/24 03:46:06;;;;;;;5.00;3.50;;;;;;;11.54;47.63;98257.66;5053580;28;20175;-57
2022/04/24 03:48:32;;;;;;;3.93;3.53;;;;;;;11.55;47.74;98261.06;5053738;28;20174;-57
2022/04/24 03:50:57;;;;;;;3.30;3.00;;;;;;;11.56;47.88;98263.50;5044947;28;20224;-56
2022/04/24 03:53:23;;;;;;;4.30;3.90;;;;;;;11.60;47.56;98259.69;5078111;28;20288;-58
2022/04/24 03:55:48;;;;;;;3.70;3.13;;;;;;;11.62;47.62;98255.22;5053616;28;20201;-57
2022/04/24 03:58:14;;;;;;;3.40;3.07;;;;;;;11.60;47.52;98257.09;5070171;28;20200;-57
2022/04/24 04:00:39;;;;;;;3.93;3.53;;;;;;;11.58;47.79;98260.78;5087507;28;20238;-58
2022/04/24 04:03:04;;;;;;;5.50;3.27;;;;;;;11.57;47.89;98257.41;5092551;28;20534;-55
2022/04/24 04:05:29;;;;;;;5.17;3.60;;;;;;;11.64;47.96;98262.81;5093772;28;20175;-57
2022/04/24 04:07:55;;;;;;;3.50;3.20;;;;;;;11.60;48.02;98276.91;5093687;28;20587;-57
2022/04/24 04:10:22;;;;;;;11.30;3.20;;;;;;;11.61;48.01;98289.66;5085251;28;20176;-57
2022/04/24 04:12:47;;;;;;;5.17;3.90;;;;;;;11.59;48.10;98298.44;5106373;28;20175;-57
2022/04/24 04:15:13;;;;;;;3.83;3.53;;;;;;;11.59;48.32;98306.97;5093602;28;20240;-59
2022/04/24 04:17:38;;;;;;;5.67;3.70;;;;;;;11.62;48.48;98311.88;5093613;28;20268;-56
2022/04/24 04:20:07;;;;;;;3.77;3.47;;;;;;;11.60;48.67;98328.41;5085279;28;20321;-57
2022/04/24 04:22:32;;;;;;;4.23;3.80;;;;;;;11.63;48.76;98330.72;5091809;28;20428;-56
2022/04/24 04:24:58;;;;;;;3.97;3.23;;;;;;;11.60;48.79;98329.22;5062481;28;20248;-59
2022/04/24 04:27:26;;;;;;;4.07;3.63;;;;;;;11.57;49.04;98332.06;5054861;28;20196;-57
2022/04/24 04:29:52;;;;;;;3.50;3.20;;;;;;;11.52;49.32;98341.13;5071443;28;20169;-56
2022/04/24 04:32:17;;;;;;;4.90;3.57;;;;;;;11.49;49.31;98331.13;5078229;28;20232;-58
2022/04/24 04:34:42;;;;;;;4.20;3.80;;;;;;;11.52;49.79;98346.28;5072668;28;20191;-57
2022/04/24 04:37:07;;;;;;;4.53;4.13;;;;;;;11.40;50.28;98338.69;5072807;28;20180;-56
2022/04/24 04:39:33;;;;;;;5.10;4.20;;;;;;;11.39;50.82;98339.63;5072383;28;20258;-57
2022/04/24 04:41:59;;;;;;;4.30;3.90;;;;;;;11.20;51.46;98342.97;5077849;28;20228;-57
2022/04/24 04:44:24;;;;;;;4.37;3.97;;;;;;;11.20;52.07;98337.81;5073282;28;20271;-57
2022/04/24 04:46:49;;;;;;;4.67;4.27;;;;;;;11.10;52.82;98339.53;5071274;28;20491;-56
2022/04/24 04:49:14;;;;;;;4.53;3.90;;;;;;;11.07;53.25;98337.22;5071961;28;20178;-56
2022/04/24 04:51:40;;;;;;;4.40;4.00;;;;;;;10.95;54.04;98339.91;5075009;28;20295;-57
2022/04/24 04:54:05;;;;;;;10.83;3.83;;;;;;;10.85;54.78;98359.59;5075385;28;20556;-56
2022/04/24 04:56:31;;;;;;;4.40;3.97;;;;;;;10.83;54.54;98353.78;5072072;28;20185;-58
2022/04/24 04:58:56;;;;;;;4.50;4.10;;;;;;;10.89;54.75;98347.28;5079843;28;20173;-58
2022/04/24 05:01:21;;;;;;;7.93;4.13;;;;;;;10.87;55.39;98356.91;5092622;28;20276;-57
2022/04/24 05:03:47;;;;;;;4.17;3.73;;;;;;;10.91;54.35;98358.28;5097972;28;20173;-57
2022/04/24 05:06:12;;;;;;;4.17;3.87;;;;;;;10.88;54.92;98355.94;5092578;28;20240;-57
2022/04/24 05:08:37;;;;;;;4.87;3.50;;;;;;;10.90;54.87;98351.50;5090996;28;20241;-57
2022/04/24 05:11:03;;;;;;;4.67;4.20;;;;;;;11.02;55.04;98355.63;5089624;28;20233;-59
2022/04/24 05:13:28;;;;;;;4.97;4.47;;;;;;;11.11;54.36;98351.44;5100052;28;20274;-58
2022/04/24 05:15:53;;;;;;;4.40;4.00;;;;;;;11.16;54.06;98346.72;5092479;28;20662;-58
2022/04/24 05:18:19;;;;;;;5.67;4.40;;;;;;;11.13;53.54;98345.22;5091101;28;20225;-57
2022/04/24 05:20:45;;;;;;;5.10;4.03;;;;;;;11.02;53.85;98353.03;5079503;28;20219;-57
2022/04/24 05:23:10;;;;;;;4.10;3.70;;;;;;;11.04;53.82;98348.59;5073188;28;20200;-57
2022/04/24 05:25:36;;;;;;;4.70;4.30;;;;;;;11.13;53.15;98359.88;5071920;28;20175;-56
2022/04/24 05:28:03;;;;;;;5.47;4.53;;;;;;;11.11;53.45;98348.88;5071710;28;20212;-57
2022/04/24 05:30:28;;;;;;;4.87;4.37;;;;;;;11.03;53.34;98361.59;5062849;28;20221;-58
2022/04/24 05:32:54;;;;;;;5.70;4.10;;;;;;;11.03;53.50;98356.44;5083985;28;20693;-58
2022/04/24 05:35:20;;;;;;;5.17;4.40;;;;;;;11.05;53.72;98350.22;5070317;28;20205;-57
2022/04/24 05:37:46;;;;;;;4.67;4.27;;;;;;;11.14;53.55;98359.72;5071963;28;20210;-57
2022/04/24 05:40:12;;;;;;;5.07;4.47;;;;;;;11.15;53.25;98357.97;5060824;28;20172;-57
2022/04/24 05:42:54;;;;;;;4.97;4.47;;;;;;;11.09;53.19;98358.50;5085617;28;20169;-58
2022/04/24 05:45:24;;;;;;;5.60;4.30;;;;;;;11.11;53.65;98354.84;5071583;28;20554;-58
2022/04/24 05:47:50;;;;;;;5.87;4.10;;;;;;;11.16;53.22;98353.66;5071903;28;20172;-57
2022/04/24 05:50:16;;;;;;;4.87;4.43;;;;;;;11.25;53.43;98350.28;5061229;28;20276;-56
2022/04/24 05:52:41;;;;;;;4.70;4.30;;;;;;;11.34;52.87;98361.53;5070096;28;20544;-56
2022/04/24 05:55:08;;;;;;;4.87;4.10;;;;;;;11.51;52.73;98349.78;5070094;28;20659;-56
2022/04/24 05:57:34;;;;;;;4.87;4.33;;;;;;;11.54;52.58;98360.66;5072257;28;20176;-57
2022/04/24 06:00:00;;;;;;;5.00;4.50;;;;;;;11.63;52.47;98357.28;5085770;28;20233;-57
2022/04/24 06:02:25;;;;;;;5.20;4.50;;;;;;;11.70;52.37;98359.34;5097138;28;20227;-58
2022/04/24 06:04:51;;;;;;;5.00;4.60;;;;;;;11.56;52.63;98360.50;5091604;28;20226;-58
2022/04/24 06:07:16;;;;;;;5.40;4.27;;;;;;;11.23;53.61;98363.28;5057967;28;20640;-58
2022/04/24 06:09:41;;;;;;;7.13;4.93;;;;;;;11.21;54.12;98362.63;5068184;28;20185;-58
2022/04/24 06:12:08;;;;;;;9.70;5.30;;;;;;;11.25;54.21;98358.81;5074593;28;20219;-56
2022/04/24 06:14:33;;;;;;;5.40;4.90;;;;;;;11.13;54.33;98365.81;5067121;28;20644;-59
2022/04/24 06:17:00;;;;;;;6.40;4.77;;;;;;;11.17;55.08;98366.38;5070205;28;20205;-57
2022/04/24 06:19:26;;;;;;;6.50;5.33;;;;;;;11.07;55.43;98362.97;5061729;28;20549;-57
2022/04/24 06:21:51;;;;;;;5.60;5.10;;;;;;;11.13;55.08;98368.38;5057619;28;20228;-58
2022/04/24 06:24:16;;;;;;;6.10;5.50;;;;;;;11.26;55.23;98370.75;5068541;28;20181;-58
2022/04/24 06:26:44;;;;;;;6.30;5.57;;;;;;;11.35;54.82;98369.16;5069433;28;20242;-57
2022/04/24 06:29:09;;;;;;;5.43;4.80;;;;;;;11.46;55.24;98370.78;5066805;28;20224;-58
2022/04/24 06:31:34;;;;;;;4.80;4.40;;;;;;;11.45;54.51;98367.41;5069733;28;20223;-57
2022/04/24 06:34:00;;;;;;;6.53;5.43;;;;;;;11.46;54.70;98373.34;5073824;28;20566;-58
2022/04/24 06:36:25;;;;;;;7.63;4.80;;;;;;;11.28;55.49;98371.41;5055287;28;20246;-57
2022/04/24 06:38:50;;;;;;;5.50;5.00;;;;;;;11.37;55.36;98371.59;5070002;28;20181;-58
2022/04/24 06:41:15;;;;;;;5.93;5.30;;;;;;;11.40;55.27;98379.88;5069404;28;20224;-57
2022/04/24 06:43:41;;;;;;;6.77;5.03;;;;;;;11.38;55.51;98368.88;5073730;28;20181;-56
2022/04/24 06:46:06;;;;;;;5.83;5.27;;;;;;;11.25;56.09;98373.44;5070416;28;20191;-58
2022/04/24 06:48:31;;;;;;;6.63;5.73;;;;;;;11.32;55.83;98368.59;5070780;28;20180;-58
2022/04/24 06:50:57;;;;;;;5.87;5.37;;;;;;;11.26;56.64;98377.66;5053870;28;20229;-57
2022/04/24 06:53:23;;;;;;;7.33;5.37;;;;;;;11.36;56.30;98375.94;5059233;28;20182;-58
2022/04/24 06:55:49;;;;;;;6.10;5.47;;;;;;;11.35;56.94;98376.03;5064510;28;20287;-57
2022/04/24 06:58:17;;;;;;;6.20;5.07;;;;;;;11.45;56.80;98374.31;5050882;28;20193;-56
2022/04/24 07:00:45;;;;;;;6.13;5.57;;;;;;;11.68;56.13;98380.06;5065837;28;20702;-57
2022/04/24 07:03:11;;;;;;;6.60;5.87;;;;;;;11.55;56.25;98372.59;5079051;28;20176;-58
2022/04/24 07:05:37;;;;;;;7.30;4.87;;;;;;;11.62;56.53;98378.84;5089760;28;20172;-56
2022/04/24 07:08:02;;;;;;;7.13;5.77;;;;;;;11.77;55.83;98376.69;5091156;28;20256;-57
2022/04/24 07:10:28;;;;;;;5.93;5.43;;;;;;;11.56;55.38;98374.22;5083851;28;20700;-61
2022/04/24 07:12:53;;;;;;;6.03;5.53;;;;;;;11.61;56.36;98379.78;5106450;28;20168;-57
2022/04/24 07:15:21;;;;;;;5.33;4.83;;;;;;;11.63;55.74;98379.63;5086646;28;20244;-57
2022/04/24 07:17:47;;;;;;;6.03;5.40;;;;;;;11.69;56.21;98384.25;5076144;28;20192;-58
2022/04/24 07:20:15;;;;;;;6.13;5.53;;;;;;;11.95;55.70;98381.19;5043755;28;20180;-57
2022/04/24 07:22:43;;;;;;;6.10;5.50;;;;;;;12.02;55.14;98381.47;5067742;28;20177;-58
2022/04/24 07:25:09;;;;;;;6.20;5.60;;;;;;;11.92;54.82;98384.00;5054578;28;20189;-57
2022/04/24 07:27:34;;;;;;;6.00;5.40;;;;;;;12.00;55.28;98376.47;5054099;28;20228;-57
2022/04/24 07:29:59;;;;;;;6.13;5.53;;;;;;;11.95;55.41;98381.97;5054016;28;20180;-57
2022/04/24 07:32:25;;;;;;;6.10;5.50;;;;;;;12.13;55.54;98375.38;5039371;28;20273;-57
2022/04/24 07:34:50;;;;;;;6.77;6.00;;;;;;;12.32;55.02;98375.38;5053999;28;20181;-58
2022/04/24 07:37:17;;;;;;;8.93;6.07;;;;;;;12.07;55.56;98376.75;5054032;28;20180;-56
2022/04/24 07:39:42;;;;;;;5.93;5.33;;;;;;;12.05;56.23;98373.47;5053803;28;20181;-57
2022/04/24 07:42:07;;;;;;;6.47;5.87;;;;;;;11.87;56.72;98381.03;5059513;28;20236;-56
2022/04/24 07:44:33;;;;;;;6.57;5.87;;;;;;;11.69;58.42;98386.84;5052727;28;20262;-57
2022/04/24 07:46:58;;;;;;;7.17;6.47;;;;;;;11.59;59.39;98380.84;5054095;28;20600;-58
2022/04/24 07:49:26;;;;;;;7.20;6.50;;;;;;;11.57;59.82;98385.31;5053633;28;20178;-58
2022/04/24 07:51:52;;;;;;;8.03;7.03;;;;;;;11.81;58.71;98386.72;5057768;28;20224;-57
2022/04/24 07:54:17;;;;;;;7.70;6.53;;;;;;;11.82;58.66;98381.44;5055269;28;20182;-56
2022/04/24 07:56:46;;;;;;;9.57;7.07;;;;;;;11.82;58.60;98384.03;5054697;28;20208;-57
2022/04/24 07:59:15;;;;;;;8.77;6.20;;;;;;;11.76;58.86;98387.94;5082791;28;20258;-57
2022/04/24 08:01:40;;;;;;;7.83;7.03;;;;;;;11.93;58.17;98380.50;5096394;28;20223;-58
2022/04/24 08:04:18;;;;;;;7.57;6.77;;;;;;;11.93;57.37;98391.63;5096832;28;20229;-58
2022/04/24 08:06:43;;;;;;;8.33;6.90;;;;;;;11.81;58.15;98390.13;5093798;28;20184;-58
2022/04/24 08:09:08;;;;;;;8.13;7.30;;;;;;;12.04;58.15;98397.63;5093253;28;20168;-59
2022/04/24 08:11:34;;;;;;;7.57;6.40;;;;;;;12.23;56.52;98397.63;5095307;28;20257;-57
2022/04/24 08:13:59;;;;;;;8.10;7.30;;;;;;;12.18;56.41;98397.22;5087153;28;20255;-58
2022/04/24 08:16:26;;;;;;;7.67;6.93;;;;;;;12.11;57.56;98407.25;5064392;28;20265;-58
2022/04/24 08:18:52;;;;;;;7.73;7.00;;;;;;;11.89;58.40;98407.47;5072606;28;20173;-58
2022/04/24 08:21:18;;;;;;;8.10;6.70;;;;;;;11.91;58.18;98403.81;5065179;28;20361;-57
2022/04/24 08:23:43;;;;;;;8.27;7.47;;;;;;;12.00;58.60;98404.00;5078535;28;20198;-58
2022/04/24 08:26:10;;;;;;;7.70;6.93;;;;;;;12.16;57.96;98401.69;5073090;28;20521;-57
2022/04/24 08:28:35;;;;;;;8.40;6.53;;;;;;;12.21;57.24;98407.25;5073079;28;20234;-58
2022/04/24 08:31:01;;;;;;;8.17;7.37;;;;;;;12.39;56.81;98398.81;5070129;28;20610;-58
2022/04/24 08:33:26;;;;;;;7.37;6.67;;;;;;;12.54;55.61;98407.78;5080840;28;20620;-58
2022/04/24 08:35:51;;;;;;;7.47;6.77;;;;;;;12.62;55.32;98408.88;5073058;28;20197;-58
2022/04/24 08:38:17;;;;;;;7.93;6.87;;;;;;;12.64;54.94;98404.38;5071985;28;20682;-57
2022/04/24 08:40:44;;;;;;;9.83;7.60;;;;;;;12.51;55.97;98407.25;5067291;28;20256;-58
2022/04/24 08:43:09;;;;;;;7.60;6.80;;;;;;;12.53;55.31;98410.50;5071498;28;20180;-59
2022/04/24 08:45:40;;;;;;;7.43;6.73;;;;;;;12.57;55.66;98409.28;5071293;28;20534;-58
2022/04/24 08:48:07;;;;;;;8.37;7.23;;;;;;;12.54;55.51;98412.94;5072461;28;20259;-58
2022/04/24 08:50:33;;;;;;;7.90;7.10;;;;;;;12.61;55.39;98409.81;5065824;28;20227;-58
2022/04/24 08:53:00;;;;;;;7.70;6.90;;;;;;;12.84;55.64;98405.97;5083956;28;20338;-58
2022/04/24 08:55:31;;;;;;;8.00;7.20;;;;;;;13.18;55.20;98397.69;5072388;28;20201;-59
2022/04/24 08:57:57;;;;;;;6.80;6.20;;;;;;;13.51;54.26;98405.06;5074347;28;20180;-58
2022/04/24 09:00:23;;;;;;;7.63;6.93;;;;;;;13.67;53.86;98399.28;5083882;28;20647;-59
2022/04/24 09:02:50;;;;;;;7.03;6.33;;;;;;;13.79;51.54;98407.63;5090983;28;20184;-58
2022/04/24 09:05:16;;;;;;;7.80;7.00;;;;;;;14.25;51.24;98399.78;5091454;28;20263;-58
2022/04/24 09:07:43;;;;;;;9.07;7.23;;;;;;;14.32;49.00;98395.66;5092667;28;20670;-58
2022/04/24 09:10:11;;;;;;;7.67;6.97;;;;;;;14.98;48.41;98403.88;5082424;28;20184;-58
2022/04/24 09:12:38;;;;;;;7.80;7.00;;;;;;;15.93;45.73;98401.16;5063867;28;20186;-57
2022/04/24 09:15:04;;;;;;;7.70;6.90;;;;;;;15.74;45.15;98402.25;5069418;28;20964;-57
2022/04/24 09:17:32;;;;;;;7.23;6.57;;;;;;;15.91;45.21;98402.31;5072599;28;20180;-57
2022/04/24 09:19:58;;;;;;;7.63;6.70;;;;;;;16.36;43.23;98400.22;5070507;28;20230;-57
2022/04/24 09:22:24;;;;;;;7.03;6.43;;;;;;;16.40;43.64;98398.94;5060910;28;20598;-58
2022/04/24 09:24:55;;;;;;;7.30;6.60;;;;;;;16.51;42.94;98400.38;5070815;28;20169;-57
2022/04/24 09:27:41;;;;;;;8.67;7.13;;;;;;;17.05;42.62;98392.03;5072330;28;20184;-57
2022/04/24 09:30:14;;;;;;;7.80;6.30;;;;;;;17.09;41.30;98401.09;5061821;28;20200;-57
2022/04/24 09:32:51;;;;;;;7.80;7.10;;;;;;;16.82;42.61;98402.28;5085883;28;20232;-58
2022/04/24 09:35:29;;;;;;;8.03;7.33;;;;;;;17.69;39.74;98402.31;5071300;28;20196;-58
2022/04/24 09:38:13;;;;;;;8.23;7.43;;;;;;;17.97;39.26;98401.03;5071874;28;20656;-57
2022/04/24 09:40:49;;;;;;;8.50;7.70;;;;;;;18.23;39.31;98406.69;5063431;28;20599;-58
2022/04/24 09:43:17;;;;;;;8.63;7.73;;;;;;;16.70;41.46;98409.63;5070840;28;20639;-57
2022/04/24 09:45:48;;;;;;;8.63;7.83;;;;;;;16.12;43.63;98410.44;5070660;28;20188;-57
2022/04/24 09:48:16;;;;;;;8.67;7.87;;;;;;;15.80;44.56;98409.38;5072015;28;20191;-59
2022/04/24 09:50:41;;;;;;;9.53;8.33;;;;;;;16.34;43.90;98412.56;5062762;28;20353;-56
2022/04/24 09:53:10;;;;;;;8.00;7.20;;;;;;;15.61;45.11;98407.88;5082542;28;20683;-57
2022/04/24 09:55:38;;;;;;;8.37;7.57;;;;;;;16.07;44.02;98411.88;5070711;28;20558;-58
2022/04/24 09:58:03;;;;;;;7.93;7.13;;;;;;;16.07;44.89;98409.28;5073020;28;20576;-58
2022/04/24 10:00:29;;;;;;;9.03;8.23;;;;;;;16.22;43.76;98410.25;5084544;28;20223;-58
2022/04/24 10:02:55;;;;;;;7.73;6.90;;;;;;;15.72;44.96;98405.97;5103911;28;20631;-58
2022/04/24 10:05:20;;;;;;;9.73;8.07;;;;;;;15.68;45.67;98417.59;5090914;28;20323;-57
2022/04/24 10:07:46;;;;;;;8.90;8.00;;;;;;;16.01;45.12;98410.72;5092213;28;20631;-58
2022/04/24 10:10:14;;;;;;;11.23;8.57;;;;;;;16.38;44.83;98417.25;5055586;28;20185;-58
2022/04/24 10:12:43;;;;;;;8.77;7.97;;;;;;;16.45;43.48;98415.63;5046813;28;20671;-58
2022/04/24 10:15:13;;;;;;;9.00;8.10;;;;;;;16.62;43.62;98418.19;5031653;28;20178;-58
2022/04/24 10:18:02;;;;;;;8.80;8.00;;;;;;;16.07;45.12;98430.84;5030337;28;20177;-58
2022/04/24 10:20:42;;;;;;;8.00;7.30;;;;;;;16.12;44.66;98430.38;5031811;28;20611;-61
2022/04/24 10:23:09;;;;;;;9.23;7.83;;;;;;;16.84;43.14;98431.50;5070583;28;20168;-58
2022/04/24 10:25:41;;;;;;;8.87;8.07;;;;;;;17.37;41.80;98424.88;5070453;28;20187;-58
2022/04/24 10:28:12;;;;;;;8.80;7.90;;;;;;;16.66;43.22;98429.91;5070042;28;20286;-57
2022/04/24 10:30:38;;;;;;;8.93;8.03;;;;;;;16.25;43.91;98430.72;5065347;28;20322;-58
2022/04/24 10:33:20;;;;;;;9.07;8.10;;;;;;;15.88;45.00;98441.53;5082669;28;20260;-58
2022/04/24 10:35:48;;;;;;;8.33;7.63;;;;;;;15.86;45.14;98444.25;5071521;28;20667;-58
2022/04/24 10:38:13;;;;;;;9.70;8.77;;;;;;;15.83;45.55;98429.03;5070087;28;20727;-60
2022/04/24 10:40:39;;;;;;;9.67;8.77;;;;;;;15.43;46.28;98439.06;5065178;28;20244;-58
2022/04/24 10:43:07;;;;;;;9.53;8.53;;;;;;;15.23;46.71;98446.28;5082491;28;20180;-59
2022/04/24 10:45:44;;;;;;;9.10;8.20;;;;;;;14.92;48.57;98443.31;5070271;28;20200;-58
2022/04/24 10:48:17;;;;;;;8.77;7.97;;;;;;;15.01;47.82;98445.81;5073554;28;20176;-58
2022/04/24 10:50:47;;;;;;;10.03;9.03;;;;;;;14.81;48.89;98449.56;5065875;28;20219;-59
2022/04/24 10:53:12;;;;;;;9.17;8.27;;;;;;;14.93;49.15;98447.53;5073726;28;20228;-57
2022/04/24 10:55:37;;;;;;;9.30;8.50;;;;;;;14.68;48.40;98445.59;5075184;28;20275;-58
2022/04/24 10:58:05;;;;;;;9.77;8.77;;;;;;;14.52;49.11;98453.19;5077337;28;20234;-57
2022/04/24 11:00:34;;;;;;;9.90;8.90;;;;;;;14.82;49.29;98446.84;5068343;28;20228;-57
2022/04/24 11:03:06;;;;;;;9.70;8.70;;;;;;;14.62;49.00;98448.75;5061326;28;20177;-58
2022/04/24 11:05:37;;;;;;;10.47;9.33;;;;;;;14.61;49.00;98451.50;5073589;28;20203;-58
2022/04/24 11:08:06;;;;;;;10.03;8.80;;;;;;;14.80;48.70;98453.13;5051916;28;20640;-57
2022/04/24 11:10:42;;;;;;;10.17;9.07;;;;;;;14.84;48.34;98457.84;5032054;28;20234;-58
2022/04/24 11:13:21;;;;;;;9.60;8.60;;;;;;;14.79;48.78;98454.91;5065180;28;20204;-58
2022/04/24 11:15:48;;;;;;;9.97;9.07;;;;;;;14.93;48.64;98458.69;5046046;28;20684;-59
2022/04/24 11:18:18;;;;;;;11.57;9.53;;;;;;;15.08;49.55;98451.22;5053526;28;20743;-59
2022/04/24 11:20:53;;;;;;;9.53;8.53;;;;;;;15.31;48.72;98456.66;5049322;28;20296;-59
2022/04/24 11:23:20;;;;;;;9.83;8.87;;;;;;;15.07;48.93;98454.75;5063393;28;20565;-58
2022/04/24 11:25:45;;;;;;;10.23;9.23;;;;;;;15.01;48.11;98455.38;5053113;28;20169;-58
2022/04/24 11:28:11;;;;;;;10.67;9.47;;;;;;;14.95;50.93;98461.97;5054388;28;20233;-59
2022/04/24 11:30:38;;;;;;;10.23;9.33;;;;;;;15.17;49.59;98463.22;5020122;28;20623;-58